createdAt,value
2023-09-06T00:01:06.074Z,22.39
2023-09-06T00:03:57.485Z,22.35
2023-09-06T00:06:45.950Z,22.41
2023-09-06T00:09:34.406Z,22.47
2023-09-06T00:12:22.657Z,22.45
2023-09-06T00:15:11.565Z,22.42
2023-09-06T00:17:59.861Z,22.37
2023-09-06T00:20:48.285Z,22.28
2023-09-06T00:23:36.652Z,22.24
2023-09-06T00:26:24.915Z,22.20
2023-09-06T00:29:13.204Z,22.27
2023-09-06T00:32:01.444Z,22.27
2023-09-06T00:34:49.976Z,22.41
2023-09-06T00:37:38.804Z,22.34
2023-09-06T00:40:27.631Z,22.37
2023-09-06T00:43:16.633Z,22.43
2023-09-06T00:46:09.010Z,22.43
2023-09-06T00:48:57.781Z,22.51
2023-09-06T00:51:46.235Z,22.34
2023-09-06T00:54:34.681Z,22.57
2023-09-06T00:57:22.908Z,22.79
2023-09-06T01:00:22.870Z,22.82
2023-09-06T01:03:11.279Z,22.78
2023-09-06T01:06:10.873Z,22.97
2023-09-06T01:09:00.084Z,22.94
2023-09-06T01:11:48.385Z,22.99
2023-09-06T01:14:39.654Z,22.99
2023-09-06T01:17:28.448Z,22.96
2023-09-06T01:20:28.896Z,22.98
2023-09-06T01:23:35.823Z,22.97
2023-09-06T01:26:24.060Z,22.86
2023-09-06T01:29:12.771Z,22.83
2023-09-06T01:32:02.795Z,22.85
2023-09-06T01:34:51.350Z,22.78
2023-09-06T01:37:39.646Z,22.83
2023-09-06T01:40:28.983Z,22.80
2023-09-06T01:43:18.577Z,22.76
2023-09-06T01:46:07.100Z,22.55
2023-09-06T01:48:55.470Z,22.61
2023-09-06T01:51:43.874Z,22.50
2023-09-06T01:54:32.171Z,22.49
2023-09-06T01:57:20.500Z,22.46
2023-09-06T02:00:29.189Z,22.37
2023-09-06T02:03:18.317Z,22.26
2023-09-06T02:06:06.624Z,22.14
2023-09-06T02:08:54.972Z,22.27
2023-09-06T02:11:43.176Z,22.00
2023-09-06T02:14:31.427Z,21.92
2023-09-06T02:17:21.717Z,21.79
2023-09-06T02:20:18.869Z,21.84
2023-09-06T02:23:07.216Z,22.10
2023-09-06T02:25:55.592Z,21.88
2023-09-06T02:28:44.033Z,21.62
2023-09-06T02:31:34.624Z,21.58
2023-09-06T02:34:22.867Z,21.70
2023-09-06T02:37:11.284Z,21.82
2023-09-06T02:39:59.461Z,21.68
2023-09-06T02:42:50.223Z,21.57
2023-09-06T02:45:38.789Z,21.29
2023-09-06T02:48:28.958Z,21.30
2023-09-06T02:51:17.565Z,21.25
2023-09-06T02:54:05.957Z,21.22
2023-09-06T02:56:54.143Z,21.12
2023-09-06T02:59:42.490Z,21.07
2023-09-06T03:02:30.850Z,20.77
2023-09-06T03:05:19.172Z,20.75
2023-09-06T03:08:08.748Z,20.89
2023-09-06T03:10:57.097Z,20.86
2023-09-06T03:13:46.676Z,20.81
2023-09-06T03:16:40.475Z,20.80
2023-09-06T03:19:32.896Z,20.81
2023-09-06T03:22:23.199Z,20.81
2023-09-06T03:25:11.448Z,20.84
2023-09-06T03:28:02.997Z,20.67
2023-09-06T03:30:53.482Z,20.67
2023-09-06T03:33:41.837Z,20.73
2023-09-06T03:36:31.000Z,20.81
2023-09-06T03:39:42.241Z,20.81
2023-09-06T03:42:55.042Z,20.72
2023-09-06T03:46:12.283Z,20.82
2023-09-06T03:49:30.881Z,20.91
2023-09-06T03:52:44.009Z,20.88
2023-09-06T03:56:02.332Z,21.01
2023-09-06T03:59:18.562Z,21.07
2023-09-06T04:02:31.728Z,21.24
2023-09-06T04:05:43.004Z,21.47
2023-09-06T04:08:58.005Z,21.41
2023-09-06T04:12:11.432Z,21.53
2023-09-06T04:15:26.377Z,21.72
2023-09-06T04:18:40.527Z,21.94
2023-09-06T04:21:56.449Z,22.01
2023-09-06T04:25:10.162Z,22.11
2023-09-06T04:28:25.554Z,22.26
2023-09-06T04:31:41.450Z,22.29
2023-09-06T04:34:57.540Z,22.55
2023-09-06T04:38:08.972Z,22.77
2023-09-06T04:41:22.032Z,22.92
2023-09-06T04:44:36.477Z,23.11
2023-09-06T04:47:52.412Z,23.40
2023-09-06T04:51:07.067Z,23.49
2023-09-06T04:54:22.235Z,23.49
2023-09-06T04:57:35.037Z,23.71
2023-09-06T05:00:50.526Z,24.00
2023-09-06T05:04:01.767Z,24.33
2023-09-06T05:07:16.306Z,24.67
2023-09-06T05:10:32.513Z,24.98
2023-09-06T05:13:46.029Z,25.21
2023-09-06T05:16:59.058Z,25.30
2023-09-06T05:20:14.550Z,25.62
2023-09-06T05:23:37.978Z,25.69
2023-09-06T05:26:52.180Z,25.95
2023-09-06T05:30:05.918Z,26.26
2023-09-06T05:33:21.144Z,26.55
2023-09-06T05:36:36.194Z,26.71
2023-09-06T05:39:49.187Z,26.87
2023-09-06T05:43:04.263Z,26.98
2023-09-06T05:46:32.439Z,27.21
2023-09-06T05:49:57.570Z,27.51
2023-09-06T05:53:11.605Z,27.79
2023-09-06T05:56:27.241Z,27.92
2023-09-06T05:59:40.335Z,28.06
2023-09-06T06:02:57.757Z,28.27
2023-09-06T06:06:11.074Z,28.41
2023-09-06T06:09:26.552Z,28.62
2023-09-06T06:12:40.652Z,28.87
2023-09-06T06:15:56.016Z,29.00
2023-09-06T06:19:09.377Z,29.07
2023-09-06T06:22:22.678Z,29.01
2023-09-06T06:25:36.038Z,29.24
2023-09-06T06:28:51.907Z,29.55
2023-09-06T06:32:05.499Z,29.83
2023-09-06T06:35:20.871Z,30.13
2023-09-06T06:38:34.395Z,30.36
2023-09-06T06:41:49.318Z,30.45
2023-09-06T06:45:00.214Z,30.68
2023-09-06T06:48:13.031Z,30.85
2023-09-06T06:51:26.234Z,30.96
2023-09-06T06:54:41.772Z,31.10
2023-09-06T06:57:53.333Z,31.21
2023-09-06T07:01:08.614Z,31.29
2023-09-06T07:04:22.325Z,31.38
2023-09-06T07:07:35.257Z,31.50
2023-09-06T07:10:46.464Z,31.86
2023-09-06T07:14:02.000Z,32.26
2023-09-06T07:17:15.610Z,32.38
2023-09-06T07:20:30.639Z,32.44
2023-09-06T07:23:48.309Z,32.70
2023-09-06T07:27:01.498Z,32.77
2023-09-06T07:30:16.916Z,33.04
2023-09-06T07:33:23.815Z,33.12
2023-09-06T07:36:30.619Z,33.29
2023-09-06T07:39:39.118Z,33.48
2023-09-06T07:42:47.494Z,33.37
2023-09-06T07:46:00.665Z,33.38
2023-09-06T07:49:11.681Z,33.70
2023-09-06T07:52:24.856Z,33.99
2023-09-06T07:55:35.513Z,34.17
2023-09-06T07:58:48.735Z,34.33
2023-09-06T08:01:56.187Z,34.66
2023-09-06T08:05:03.102Z,34.72
2023-09-06T08:08:11.988Z,34.79
2023-09-06T08:11:20.459Z,34.96
2023-09-06T08:14:27.224Z,35.08
2023-09-06T08:18:16.221Z,35.16
2023-09-06T08:22:10.636Z,35.12
2023-09-06T08:26:05.143Z,34.90
2023-09-06T08:29:49.969Z,34.92
2023-09-06T08:33:35.083Z,35.09
2023-09-06T08:37:20.404Z,35.37
2023-09-06T08:41:11.935Z,35.47
2023-09-06T08:45:05.230Z,35.65
2023-09-06T08:48:50.235Z,35.66
2023-09-06T08:52:34.909Z,35.32
2023-09-06T08:56:19.875Z,35.46
2023-09-06T09:00:12.724Z,35.69
2023-09-06T09:04:10.292Z,35.84
2023-09-06T09:08:00.989Z,35.78
2023-09-06T09:11:51.154Z,35.77
2023-09-06T09:15:42.243Z,35.72
2023-09-06T09:19:33.266Z,35.53
2023-09-06T09:23:25.630Z,35.74
2023-09-06T09:27:20.903Z,36.05
2023-09-06T09:31:12.379Z,36.11
2023-09-06T09:34:57.224Z,36.41
2023-09-06T09:38:46.061Z,36.51
2023-09-06T09:42:45.072Z,36.43
2023-09-06T09:46:41.337Z,36.46
2023-09-06T09:50:31.225Z,36.35
2023-09-06T09:54:16.028Z,36.54
2023-09-06T09:58:01.894Z,36.18
2023-09-06T10:01:46.699Z,35.81
2023-09-06T10:05:40.003Z,35.69
2023-09-06T10:09:34.852Z,36.14
2023-09-06T10:13:26.301Z,36.25
2023-09-06T10:17:25.837Z,36.44
2023-09-06T10:21:25.681Z,36.50
2023-09-06T10:25:19.650Z,36.41
2023-09-06T10:29:11.899Z,36.46
2023-09-06T10:32:56.950Z,36.50
2023-09-06T10:36:44.136Z,36.65
2023-09-06T10:40:32.100Z,36.23
2023-09-06T10:44:28.786Z,35.93
2023-09-06T10:48:21.884Z,35.82
2023-09-06T10:52:14.317Z,36.02
2023-09-06T10:56:08.308Z,36.38
2023-09-06T11:00:03.275Z,36.69
2023-09-06T11:03:48.013Z,36.69
2023-09-06T11:07:46.810Z,36.84
2023-09-06T11:11:39.842Z,36.90
2023-09-06T11:15:31.293Z,36.93
2023-09-06T11:19:37.024Z,36.84
2023-09-06T11:23:39.271Z,36.67
2023-09-06T11:27:41.027Z,36.52
2023-09-06T11:31:39.274Z,36.33
2023-09-06T11:35:40.642Z,36.30
2023-09-06T11:39:38.160Z,36.20
2023-09-06T11:43:39.200Z,36.19
2023-09-06T11:47:37.247Z,35.86
2023-09-06T11:51:41.964Z,35.50
2023-09-06T11:55:43.281Z,35.39
2023-09-06T11:59:41.228Z,35.62
2023-09-06T12:03:42.227Z,36.13
2023-09-06T12:07:39.181Z,36.68
2023-09-06T12:11:42.280Z,37.14
2023-09-06T12:15:40.132Z,37.75
2023-09-06T12:19:41.184Z,37.52
2023-09-06T12:23:38.970Z,37.33
2023-09-06T12:27:40.433Z,37.50
2023-09-06T12:31:38.499Z,37.80
2023-09-06T12:35:40.468Z,37.82
2023-09-06T12:39:38.330Z,37.67
2023-09-06T12:43:39.977Z,37.56
2023-09-06T12:47:37.383Z,37.25
2023-09-06T12:51:38.748Z,36.85
2023-09-06T12:55:36.189Z,36.44
2023-09-06T12:59:37.465Z,36.07
2023-09-06T13:03:35.388Z,35.85
2023-09-06T13:07:36.638Z,35.77
2023-09-06T13:11:34.235Z,36.05
2023-09-06T13:15:35.913Z,36.32
2023-09-06T13:19:15.646Z,36.83
2023-09-06T13:22:54.967Z,37.25
2023-09-06T13:26:32.271Z,37.66
2023-09-06T13:30:12.188Z,37.49
2023-09-06T13:33:50.572Z,37.50
2023-09-06T13:37:29.962Z,37.72
2023-09-06T13:41:07.314Z,37.81
2023-09-06T13:44:45.980Z,38.00
2023-09-06T13:48:23.235Z,37.95
2023-09-06T13:52:03.932Z,38.06
2023-09-06T13:55:40.307Z,37.89
2023-09-06T13:59:21.403Z,37.67
2023-09-06T14:02:59.748Z,37.24
2023-09-06T14:06:41.025Z,36.95
2023-09-06T14:10:19.396Z,36.70
2023-09-06T14:14:00.022Z,36.54
2023-09-06T14:17:37.470Z,36.42
2023-09-06T14:21:18.534Z,36.12
2023-09-06T14:24:55.506Z,35.96
2023-09-06T14:28:35.932Z,35.83
2023-09-06T14:32:12.601Z,35.84
2023-09-06T14:35:53.671Z,35.60
2023-09-06T14:39:34.419Z,35.28
2023-09-06T14:43:11.458Z,35.12
2023-09-06T14:46:51.829Z,35.17
2023-09-06T14:50:28.662Z,35.32
2023-09-06T14:54:09.431Z,35.15
2023-09-06T14:57:46.647Z,34.79
2023-09-06T15:01:27.485Z,34.87
2023-09-06T15:05:04.524Z,34.90
2023-09-06T15:08:45.046Z,34.75
2023-09-06T15:12:22.662Z,34.69
2023-09-06T15:16:03.403Z,34.54
2023-09-06T15:19:46.462Z,34.30
2023-09-06T15:23:17.645Z,34.21
2023-09-06T15:26:50.672Z,34.11
2023-09-06T15:30:21.322Z,34.09
2023-09-06T15:33:52.550Z,34.01
2023-09-06T15:37:24.936Z,33.86
2023-09-06T15:40:55.592Z,33.81
2023-09-06T15:44:27.955Z,33.85
2023-09-06T15:47:58.545Z,33.56
2023-09-06T15:51:30.964Z,33.34
2023-09-06T15:55:01.769Z,33.24
2023-09-06T15:58:34.227Z,33.10
2023-09-06T16:02:04.591Z,32.88
2023-09-06T16:05:36.792Z,32.75
2023-09-06T16:09:07.523Z,32.59
2023-09-06T16:12:40.024Z,32.41
2023-09-06T16:16:10.472Z,32.28
2023-09-06T16:19:43.309Z,32.18
2023-09-06T16:23:14.574Z,31.94
2023-09-06T16:26:46.964Z,31.75
2023-09-06T16:30:17.762Z,31.52
2023-09-06T16:33:48.188Z,31.36
2023-09-06T16:37:20.518Z,31.08
2023-09-06T16:40:51.630Z,30.84
2023-09-06T16:44:24.080Z,30.82
2023-09-06T16:47:54.595Z,31.01
2023-09-06T16:51:24.873Z,30.89
2023-09-06T16:54:49.124Z,31.08
2023-09-06T16:58:13.453Z,31.03
2023-09-06T17:01:37.764Z,30.77
2023-09-06T17:05:02.184Z,30.53
2023-09-06T17:08:32.944Z,30.49
2023-09-06T17:12:04.154Z,30.31
2023-09-06T17:15:35.383Z,30.23
2023-09-06T17:19:06.757Z,30.28
2023-09-06T17:22:39.062Z,29.81
2023-09-06T17:26:09.797Z,29.74
2023-09-06T17:29:40.764Z,29.50
2023-09-06T17:33:11.787Z,29.33
2023-09-06T17:36:42.532Z,28.94
2023-09-06T17:40:13.868Z,28.88
2023-09-06T17:43:50.182Z,28.78
2023-09-06T17:47:25.274Z,28.70
2023-09-06T17:51:00.564Z,28.46
2023-09-06T17:54:31.641Z,28.26
2023-09-06T17:58:04.272Z,28.00
2023-09-06T18:01:32.485Z,27.90
2023-09-06T18:05:07.068Z,27.81
2023-09-06T18:08:42.108Z,27.94
2023-09-06T18:12:14.552Z,27.78
2023-09-06T18:15:44.950Z,27.53
2023-09-06T18:19:16.944Z,27.70
2023-09-06T18:22:47.387Z,27.37
2023-09-06T18:26:18.090Z,27.37
2023-09-06T18:29:48.495Z,27.29
2023-09-06T18:33:19.262Z,27.11
2023-09-06T18:36:43.658Z,27.01
2023-09-06T18:40:13.821Z,26.97
2023-09-06T18:43:44.334Z,26.86
2023-09-06T18:47:15.664Z,26.85
2023-09-06T18:50:45.972Z,26.80
2023-09-06T18:54:16.818Z,26.83
2023-09-06T18:58:03.365Z,26.76
2023-09-06T19:01:30.377Z,26.71
2023-09-06T19:04:58.725Z,26.59
2023-09-06T19:08:30.015Z,26.48
2023-09-06T19:12:00.905Z,26.34
2023-09-06T19:15:32.891Z,26.23
2023-09-06T19:19:10.116Z,26.21
2023-09-06T19:22:52.646Z,26.06
2023-09-06T19:26:25.206Z,25.93
2023-09-06T19:30:01.603Z,25.82
2023-09-06T19:33:34.161Z,25.60
2023-09-06T19:37:10.374Z,25.52
2023-09-06T19:40:42.795Z,25.49
2023-09-06T19:44:19.184Z,25.38
2023-09-06T19:47:57.962Z,25.21
2023-09-06T19:51:40.414Z,25.17
2023-09-06T19:55:19.818Z,24.99
2023-09-06T19:58:56.277Z,24.93
2023-09-06T20:02:38.939Z,24.87
2023-09-06T20:06:20.008Z,24.70
2023-09-06T20:09:57.101Z,24.75
2023-09-06T20:13:41.477Z,24.50
2023-09-06T20:17:20.727Z,24.53
2023-09-06T20:20:57.934Z,24.49
2023-09-06T20:24:34.186Z,24.38
2023-09-06T20:28:06.454Z,24.27
2023-09-06T20:31:47.764Z,24.09
2023-09-06T20:35:25.146Z,23.84
2023-09-06T20:39:06.250Z,23.91
2023-09-06T20:42:46.224Z,23.90
2023-09-06T20:46:27.151Z,23.76
2023-09-06T20:50:04.122Z,23.82
2023-09-06T20:53:44.785Z,23.91
2023-09-06T20:57:22.061Z,23.82
2023-09-06T21:01:00.863Z,23.83
2023-09-06T21:04:37.562Z,23.76
2023-09-06T21:08:18.632Z,23.52
2023-09-06T21:11:55.089Z,23.81
2023-09-06T21:15:35.928Z,23.76
2023-09-06T21:19:13.236Z,23.56
2023-09-06T21:22:53.740Z,23.47
2023-09-06T21:26:30.307Z,23.43
2023-09-06T21:30:11.153Z,23.29
2023-09-06T21:33:48.111Z,23.39
2023-09-06T21:37:28.714Z,23.24
2023-09-06T21:41:06.327Z,23.06
2023-09-06T21:44:46.811Z,22.97
2023-09-06T21:48:23.564Z,23.05
2023-09-06T21:52:04.784Z,23.02
2023-09-06T21:55:41.235Z,23.05
2023-09-06T21:59:21.803Z,23.12
2023-09-06T22:02:58.349Z,22.89
2023-09-06T22:06:57.768Z,22.74
2023-09-06T22:10:54.091Z,22.49
2023-09-06T22:14:50.212Z,22.31
2023-09-06T22:18:30.816Z,22.45
2023-09-06T22:22:08.341Z,22.29
2023-09-06T22:25:48.817Z,22.13
2023-09-06T22:29:26.198Z,22.09
2023-09-06T22:33:06.789Z,22.18
2023-09-06T22:36:43.280Z,21.88
2023-09-06T22:40:23.779Z,21.89
2023-09-06T22:44:01.273Z,21.71
2023-09-06T22:47:42.346Z,21.73
2023-09-06T22:51:19.241Z,21.87
2023-09-06T22:55:00.448Z,21.89
2023-09-06T22:58:37.407Z,21.84
2023-09-06T23:02:18.189Z,21.98
2023-09-06T23:05:55.383Z,21.89
2023-09-06T23:09:35.817Z,21.90
2023-09-06T23:13:13.282Z,21.69
2023-09-06T23:16:54.399Z,21.42
2023-09-06T23:19:26.545Z,21.49
2023-09-06T23:21:58.493Z,21.28
2023-09-06T23:24:26.626Z,21.38
2023-09-06T23:26:59.910Z,21.47
2023-09-06T23:29:36.129Z,21.44
2023-09-06T23:32:06.361Z,21.58
2023-09-06T23:34:35.668Z,21.81
2023-09-06T23:37:06.609Z,21.69
2023-09-06T23:39:34.818Z,21.64
2023-09-06T23:42:11.180Z,21.79
2023-09-06T23:44:42.404Z,22.00
2023-09-06T23:47:12.038Z,22.05
2023-09-06T23:49:40.466Z,22.02
2023-09-06T23:52:08.241Z,22.12
2023-09-06T23:54:46.297Z,22.07
2023-09-06T23:57:19.533Z,22.15
2023-09-06T23:59:48.060Z,21.80
